Aviation Digital Data Service (ADDS)

Output produced by METARs form (0622 UTC 30 January 2015)
found at http://aviationweather.gov/adds/metars/
 
KCAR 300520Z 3006/3106 13004KT P6SM SCT250 
     FM301100 14006KT 3SM -SN SCT009 OVC025 
     FM301400 13007KT 1SM -SN OVC015 
     FM301800 14007KT 3/4SM -SN BR OVC004 
     FM310200 02012KT 1/2SM SN FG VV002